Time;durP1;ratioP1;P1;durP2;ratioP2;P2;SDS_P1;SDS_P2;PMS_P1;PMS_P2;Temp;Humidity;BMP_temperature;BMP_pressure;BME280_temperature;BME280_humidity;BME280_pressure;Samples;Min_cycle;Max_cycle;Signal;HPM_P1;HPM_P2
2024/03/24 00:02:43;;;;;;;14.75;3.50;;;;;;;;;;5052913;28;20033;-68
2024/03/24 00:05:28;;;;;;;6.40;4.30;;;;;;;;;;5052272;28;20036;-68
2024/03/24 00:08:14;;;;;;;12.75;4.30;;;;;;;;;;5053546;28;20048;-68
2024/03/24 00:11:00;;;;;;;15.65;4.00;;;;;;;;;;5053142;28;20049;-68
2024/03/24 00:13:45;;;;;;;18.65;4.30;;;;;;;;;;5053473;28;20049;-68
2024/03/24 00:16:31;;;;;;;11.63;3.88;;;;;;;;;;5051972;28;20056;-68
2024/03/24 00:19:17;;;;;;;7.15;2.75;;;;;;;;;;5052418;28;20021;-68
2024/03/24 00:22:02;;;;;;;6.82;2.53;;;;;;;;;;5052955;28;20025;-68
2024/03/24 00:24:48;;;;;;;10.23;3.22;;;;;;;;;;5052056;28;20017;-68
2024/03/24 00:27:33;;;;;;;8.48;2.15;;;;;;;;;;5053076;28;20033;-68
2024/03/24 00:30:19;;;;;;;5.85;2.25;;;;;;;;;;5053315;28;20514;-68
2024/03/24 00:33:05;;;;;;;5.57;2.00;;;;;;;;;;5037792;28;20025;-69
2024/03/24 00:35:50;;;;;;;7.63;2.17;;;;;;;;;;5052208;28;20056;-68
2024/03/24 00:38:36;;;;;;;9.27;2.72;;;;;;;;;;5052327;28;20108;-68
2024/03/24 00:41:22;;;;;;;4.13;2.17;;;;;;;;;;5052165;28;20031;-68
2024/03/24 00:44:07;;;;;;;17.02;3.85;;;;;;;;;;5051268;28;20498;-68
2024/03/24 00:46:53;;;;;;;13.50;3.85;;;;;;;;;;5050347;28;20032;-68
2024/03/24 00:49:38;;;;;;;10.65;4.25;;;;;;;;;;5045040;28;20024;-68
2024/03/24 00:52:24;;;;;;;14.20;4.60;;;;;;;;;;5054483;28;20025;-68
2024/03/24 00:55:10;;;;;;;11.48;3.20;;;;;;;;;;5056219;28;20104;-68
2024/03/24 00:57:55;;;;;;;16.58;4.35;;;;;;;;;;5055660;28;20083;-68
2024/03/24 01:00:41;;;;;;;9.27;5.95;;;;;;;;;;5056373;28;20025;-68
2024/03/24 01:03:27;;;;;;;9.50;3.65;;;;;;;;;;5055403;28;20017;-68
2024/03/24 01:06:12;;;;;;;10.63;4.32;;;;;;;;;;5055583;28;20477;-68
2024/03/24 01:08:58;;;;;;;12.32;5.28;;;;;;;;;;5055984;28;20047;-68
2024/03/24 01:11:43;;;;;;;12.88;4.13;;;;;;;;;;5056369;28;20068;-68
2024/03/24 01:14:29;;;;;;;16.08;4.45;;;;;;;;;;5040684;28;20032;-68
2024/03/24 01:17:15;;;;;;;9.43;4.78;;;;;;;;;;5055989;28;20067;-68
2024/03/24 01:20:00;;;;;;;14.57;4.13;;;;;;;;;;5055982;28;20071;-68
2024/03/24 01:22:46;;;;;;;13.25;4.35;;;;;;;;;;5054484;28;20055;-68
2024/03/24 01:25:32;;;;;;;14.70;4.60;;;;;;;;;;5055442;28;20100;-68
2024/03/24 01:28:18;;;;;;;13.93;4.55;;;;;;;;;;5055532;28;20029;-68
2024/03/24 01:31:04;;;;;;;15.75;4.40;;;;;;;;;;5055772;28;20032;-68
2024/03/24 01:33:50;;;;;;;17.15;4.88;;;;;;;;;;5042314;28;20056;-68
2024/03/24 01:36:35;;;;;;;9.20;3.75;;;;;;;;;;5047473;28;20025;-68
2024/03/24 01:39:21;;;;;;;13.52;4.70;;;;;;;;;;5055877;28;20041;-68
2024/03/24 01:42:06;;;;;;;19.30;4.93;;;;;;;;;;5055363;28;20017;-68
2024/03/24 01:44:52;;;;;;;11.13;4.03;;;;;;;;;;5054446;28;20044;-68
2024/03/24 01:47:38;;;;;;;12.05;4.50;;;;;;;;;;5047841;28;20059;-68
2024/03/24 01:50:24;;;;;;;13.35;3.97;;;;;;;;;;5055382;28;20543;-68
2024/03/24 01:53:10;;;;;;;11.60;4.55;;;;;;;;;;5053478;28;20040;-68
2024/03/24 01:55:56;;;;;;;18.05;4.68;;;;;;;;;;5054886;28;20025;-68
2024/03/24 01:58:41;;;;;;;13.95;4.03;;;;;;;;;;5054751;28;20033;-68
2024/03/24 02:01:27;;;;;;;15.60;5.10;;;;;;;;;;5054328;28;20162;-68
2024/03/24 02:04:13;;;;;;;12.35;3.58;;;;;;;;;;5055199;28;20028;-68
2024/03/24 02:06:59;;;;;;;10.48;3.95;;;;;;;;;;5055450;28;20028;-68
2024/03/24 02:09:45;;;;;;;3.70;2.47;;;;;;;;;;5053298;28;20047;-68
2024/03/24 02:12:31;;;;;;;6.22;1.95;;;;;;;;;;5054922;28;20107;-68
2024/03/24 02:15:16;;;;;;;5.70;1.45;;;;;;;;;;5054996;28;20517;-68
2024/03/24 02:18:02;;;;;;;2.63;1.33;;;;;;;;;;5054570;28;20030;-68
2024/03/24 02:20:48;;;;;;;6.05;2.00;;;;;;;;;;5053620;28;20025;-68
2024/03/24 02:23:33;;;;;;;2.50;1.77;;;;;;;;;;5054862;28;20044;-68
2024/03/24 02:26:19;;;;;;;5.30;1.42;;;;;;;;;;5053371;28;20035;-68
2024/03/24 02:29:04;;;;;;;5.15;1.75;;;;;;;;;;5054064;28;20017;-67
2024/03/24 02:31:50;;;;;;;3.42;2.05;;;;;;;;;;5054627;28;20402;-68
2024/03/24 02:34:36;;;;;;;1.92;1.50;;;;;;;;;;5046444;28;20053;-68
2024/03/24 02:37:21;;;;;;;4.28;2.22;;;;;;;;;;5054460;28;20025;-68
2024/03/24 02:40:09;;;;;;;5.28;1.73;;;;;;;;;;5054668;28;20021;-68
2024/03/24 02:42:54;;;;;;;3.17;1.88;;;;;;;;;;5038485;28;20059;-68
2024/03/24 02:45:40;;;;;;;6.57;1.70;;;;;;;;;;5040103;28;20029;-68
2024/03/24 02:48:26;;;;;;;5.10;2.15;;;;;;;;;;5053284;28;20067;-68
2024/03/24 02:51:12;;;;;;;6.80;2.35;;;;;;;;;;5038494;28;20060;-67
2024/03/24 02:53:57;;;;;;;4.43;1.83;;;;;;;;;;5053032;28;20028;-68
2024/03/24 02:56:43;;;;;;;4.68;1.80;;;;;;;;;;5052938;28;20063;-68
2024/03/24 02:59:28;;;;;;;9.07;2.25;;;;;;;;;;5054069;28;20021;-68
2024/03/24 03:02:14;;;;;;;11.13;1.88;;;;;;;;;;5053381;28;20024;-67
2024/03/24 03:05:00;;;;;;;10.70;2.60;;;;;;;;;;5047216;28;20502;-68
2024/03/24 03:07:46;;;;;;;10.85;2.75;;;;;;;;;;5058727;28;20021;-68
2024/03/24 03:10:32;;;;;;;8.13;2.22;;;;;;;;;;5072006;28;20020;-68
2024/03/24 03:13:17;;;;;;;10.32;2.45;;;;;;;;;;5071905;28;20616;-68
2024/03/24 03:16:03;;;;;;;12.43;2.63;;;;;;;;;;5071498;28;20032;-68
2024/03/24 03:18:49;;;;;;;8.25;2.92;;;;;;;;;;5071568;28;20104;-68
2024/03/24 03:21:35;;;;;;;6.68;2.20;;;;;;;;;;5072509;28;20020;-68
2024/03/24 03:24:20;;;;;;;10.48;2.42;;;;;;;;;;5072114;28;20032;-68
2024/03/24 03:27:06;;;;;;;5.20;2.17;;;;;;;;;;5072346;28;20031;-68
2024/03/24 03:29:52;;;;;;;6.88;2.60;;;;;;;;;;5071833;28;20490;-68
2024/03/24 03:32:37;;;;;;;2.42;1.67;;;;;;;;;;5072699;28;20025;-68
2024/03/24 03:35:23;;;;;;;8.10;1.85;;;;;;;;;;5072421;28;20016;-68
2024/03/24 03:38:09;;;;;;;11.93;2.10;;;;;;;;;;5072249;28;20059;-68
2024/03/24 03:40:54;;;;;;;15.25;2.63;;;;;;;;;;5072014;28;20029;-68
2024/03/24 03:43:40;;;;;;;3.60;1.83;;;;;;;;;;5071329;28;20025;-68
2024/03/24 03:46:26;;;;;;;4.50;1.90;;;;;;;;;;5072997;28;20067;-68
2024/03/24 03:49:14;;;;;;;7.88;2.17;;;;;;;;;;5058811;28;20520;-68
2024/03/24 03:52:00;;;;;;;6.78;2.33;;;;;;;;;;5072635;28;20031;-68
2024/03/24 03:54:47;;;;;;;6.72;1.70;;;;;;;;;;5071751;28;20100;-68
2024/03/24 03:57:33;;;;;;;4.85;1.77;;;;;;;;;;5071268;28;20021;-68
2024/03/24 04:00:19;;;;;;;5.40;2.08;;;;;;;;;;5072009;28;20024;-68
2024/03/24 04:03:04;;;;;;;9.90;2.00;;;;;;;;;;5072190;28;20032;-68
2024/03/24 04:05:50;;;;;;;7.07;2.38;;;;;;;;;;5072006;28;20020;-68
2024/03/24 04:08:39;;;;;;;2.90;2.08;;;;;;;;;;5071494;28;20060;-68
2024/03/24 04:11:24;;;;;;;8.55;2.17;;;;;;;;;;5072380;28;20052;-68
2024/03/24 04:14:10;;;;;;;5.78;2.20;;;;;;;;;;5057877;28;20052;-68
2024/03/24 04:16:55;;;;;;;6.38;2.00;;;;;;;;;;5072377;28;20115;-68
2024/03/24 04:19:41;;;;;;;2.55;1.50;;;;;;;;;;5071653;28;20031;-68
2024/03/24 04:22:27;;;;;;;3.42;1.98;;;;;;;;;;5071604;28;20025;-68
2024/03/24 04:25:12;;;;;;;9.50;3.10;;;;;;;;;;5071356;28;20017;-68
2024/03/24 04:27:58;;;;;;;4.10;2.00;;;;;;;;;;5074619;28;20512;-68
2024/03/24 04:30:44;;;;;;;5.57;2.35;;;;;;;;;;5074798;28;20481;-68
2024/03/24 04:33:29;;;;;;;6.68;2.30;;;;;;;;;;5075022;28;20111;-68
2024/03/24 04:36:15;;;;;;;9.98;2.30;;;;;;;;;;5075905;28;20025;-68
2024/03/24 04:39:01;;;;;;;10.98;3.20;;;;;;;;;;5075718;28;20382;-68
2024/03/24 04:41:46;;;;;;;10.43;2.63;;;;;;;;;;5074851;28;20027;-68
2024/03/24 04:44:32;;;;;;;8.02;3.20;;;;;;;;;;5075436;28;20389;-68
2024/03/24 04:47:18;;;;;;;8.63;2.35;;;;;;;;;;5075239;28;20031;-68
2024/03/24 04:50:05;;;;;;;9.27;2.50;;;;;;;;;;5075303;28;20021;-68
2024/03/24 04:52:50;;;;;;;12.82;2.85;;;;;;;;;;5075034;28;20047;-68
2024/03/24 04:55:36;;;;;;;9.98;2.80;;;;;;;;;;5074918;28;20017;-67
2024/03/24 04:58:22;;;;;;;5.63;2.28;;;;;;;;;;5074800;28;20447;-68
2024/03/24 05:01:07;;;;;;;6.57;2.67;;;;;;;;;;5074881;28;20035;-68
2024/03/24 05:03:53;;;;;;;3.50;2.00;;;;;;;;;;5074695;28;20059;-68
2024/03/24 05:06:38;;;;;;;8.75;2.42;;;;;;;;;;5074459;28;20089;-68
2024/03/24 05:09:24;;;;;;;12.07;2.22;;;;;;;;;;5074680;28;20485;-68
2024/03/24 05:12:10;;;;;;;6.40;3.35;;;;;;;;;;5074524;28;20039;-68
2024/03/24 05:14:55;;;;;;;6.10;2.33;;;;;;;;;;5074633;28;20454;-68
2024/03/24 05:17:42;;;;;;;6.93;2.58;;;;;;;;;;5074690;28;20016;-68
2024/03/24 05:20:28;;;;;;;10.27;2.25;;;;;;;;;;5073751;28;20024;-68
2024/03/24 05:23:18;;;;;;;8.50;2.38;;;;;;;;;;5074184;28;20067;-68
2024/03/24 05:26:04;;;;;;;11.38;2.17;;;;;;;;;;5073459;28;20557;-68
2024/03/24 05:28:50;;;;;;;6.50;2.50;;;;;;;;;;5073794;28;20059;-68
2024/03/24 05:31:36;;;;;;;9.45;2.70;;;;;;;;;;5074126;28;20020;-68
2024/03/24 05:34:22;;;;;;;9.98;2.50;;;;;;;;;;5075035;28;20025;-68
2024/03/24 05:37:07;;;;;;;9.25;2.15;;;;;;;;;;5059151;28;20021;-68
2024/03/24 05:39:53;;;;;;;10.35;3.38;;;;;;;;;;5073052;28;20442;-68
2024/03/24 05:42:39;;;;;;;8.82;3.22;;;;;;;;;;5073041;28;20025;-68
2024/03/24 05:45:25;;;;;;;7.43;2.90;;;;;;;;;;5093677;22;20048;-66
2024/03/24 05:48:10;;;;;;;9.82;2.65;;;;;;;;;;5073223;28;20025;-66
2024/03/24 05:51:03;;;;;;;6.65;2.13;;;;;;;;;;5072959;28;20055;-66
2024/03/24 05:53:49;;;;;;;6.00;2.33;;;;;;;;;;5058505;28;20505;-66
2024/03/24 05:56:34;;;;;;;6.85;2.80;;;;;;;;;;5053845;28;20034;-66
2024/03/24 05:59:20;;;;;;;14.27;3.58;;;;;;;;;;5039478;28;20028;-66
2024/03/24 06:02:06;;;;;;;7.57;2.60;;;;;;;;;;5053723;28;20087;-65
2024/03/24 06:04:53;;;;;;;8.70;4.20;;;;;;;;;;5053217;28;20067;-66
2024/03/24 06:07:38;;;;;;;17.48;2.95;;;;;;;;;;5053423;28;20029;-66
2024/03/24 06:10:24;;;;;;;5.95;2.67;;;;;;;;;;5052868;28;20500;-66
2024/03/24 06:13:10;;;;;;;7.22;2.03;;;;;;;;;;5053204;28;20027;-66
2024/03/24 06:15:56;;;;;;;9.13;2.70;;;;;;;;;;5053643;28;20013;-66
2024/03/24 06:18:41;;;;;;;10.23;2.58;;;;;;;;;;5053100;28;20036;-66
2024/03/24 06:21:27;;;;;;;17.27;3.47;;;;;;;;;;5051884;28;20025;-66
2024/03/24 06:24:13;;;;;;;8.05;3.03;;;;;;;;;;5052539;28;20071;-66
2024/03/24 06:26:58;;;;;;;4.95;2.58;;;;;;;;;;5051402;28;20021;-66
2024/03/24 06:29:44;;;;;;;10.23;2.75;;;;;;;;;;5052880;28;20052;-66
2024/03/24 06:32:29;;;;;;;7.72;2.88;;;;;;;;;;5052429;28;20037;-66
2024/03/24 06:35:15;;;;;;;6.22;2.95;;;;;;;;;;5051667;28;20017;-66
2024/03/24 06:38:02;;;;;;;8.45;2.72;;;;;;;;;;5052015;28;20509;-66
2024/03/24 06:40:47;;;;;;;19.02;3.22;;;;;;;;;;5052538;28;20037;-66
2024/03/24 06:43:36;;;;;;;10.98;2.40;;;;;;;;;;5051233;28;20114;-66
2024/03/24 06:46:22;;;;;;;9.52;2.35;;;;;;;;;;5052965;28;20044;-66
2024/03/24 06:49:08;;;;;;;6.32;2.63;;;;;;;;;;5052608;28;20033;-66
2024/03/24 06:51:53;;;;;;;14.27;3.50;;;;;;;;;;5052178;28;20033;-66
2024/03/24 06:54:39;;;;;;;12.13;3.65;;;;;;;;;;5052551;28;20096;-66
2024/03/24 06:57:26;;;;;;;11.65;2.75;;;;;;;;;;5052001;28;20025;-66
2024/03/24 07:00:13;;;;;;;16.42;3.03;;;;;;;;;;5037725;28;20033;-66
2024/03/24 07:02:59;;;;;;;14.73;2.83;;;;;;;;;;5052892;28;20040;-66
2024/03/24 07:05:44;;;;;;;13.95;4.10;;;;;;;;;;5051785;28;20368;-66
2024/03/24 07:08:30;;;;;;;11.40;3.05;;;;;;;;;;5050884;28;20087;-66
2024/03/24 07:11:16;;;;;;;13.30;3.30;;;;;;;;;;5051672;28;20017;-66
2024/03/24 07:14:01;;;;;;;14.70;3.67;;;;;;;;;;5051938;28;20021;-66
2024/03/24 07:16:47;;;;;;;15.65;2.65;;;;;;;;;;5051631;28;20552;-66
2024/03/24 07:19:32;;;;;;;10.38;3.42;;;;;;;;;;5051414;28;20346;-66
2024/03/24 07:22:19;;;;;;;7.03;1.95;;;;;;;;;;5051617;28;20029;-66
2024/03/24 07:25:04;;;;;;;2.78;1.70;;;;;;;;;;5036912;28;20397;-66
2024/03/24 07:27:50;;;;;;;8.52;1.27;;;;;;;;;;5052238;28;20033;-66
2024/03/24 07:30:36;;;;;;;5.85;1.48;;;;;;;;;;5051120;28;20055;-66
2024/03/24 07:33:21;;;;;;;6.20;1.58;;;;;;;;;;5051307;28;20049;-66
2024/03/24 07:36:07;;;;;;;5.43;1.73;;;;;;;;;;5050331;28;20025;-66
2024/03/24 07:38:53;;;;;;;9.32;2.38;;;;;;;;;;5051224;28;20111;-66
2024/03/24 07:41:38;;;;;;;5.47;1.65;;;;;;;;;;5050712;28;20516;-66
2024/03/24 07:44:24;;;;;;;10.20;2.30;;;;;;;;;;5050713;28;20402;-66
2024/03/24 07:47:09;;;;;;;4.60;1.58;;;;;;;;;;5051487;28;20075;-66
2024/03/24 07:49:55;;;;;;;3.58;1.60;;;;;;;;;;5051677;28;20108;-66
2024/03/24 07:52:41;;;;;;;2.92;1.70;;;;;;;;;;5050711;28;20021;-66
2024/03/24 07:55:26;;;;;;;9.60;2.28;;;;;;;;;;5051674;28;20031;-66
2024/03/24 07:58:12;;;;;;;2.30;1.63;;;;;;;;;;5051112;28;20063;-66
2024/03/24 08:00:57;;;;;;;4.43;1.92;;;;;;;;;;5050890;28;20029;-65
2024/03/24 08:03:43;;;;;;;3.70;1.50;;;;;;;;;;5054968;28;20490;-66
2024/03/24 08:06:29;;;;;;;6.20;1.80;;;;;;;;;;5055496;28;20119;-66
2024/03/24 08:09:14;;;;;;;6.85;1.83;;;;;;;;;;5055400;28;20025;-66
2024/03/24 08:12:00;;;;;;;7.65;1.90;;;;;;;;;;5054968;28;20025;-66
2024/03/24 08:14:46;;;;;;;7.60;1.70;;;;;;;;;;5054889;28;20108;-66
2024/03/24 08:17:31;;;;;;;3.90;1.63;;;;;;;;;;5055195;28;20499;-66
2024/03/24 08:20:17;;;;;;;3.30;1.52;;;;;;;;;;5054403;28;20031;-66
2024/03/24 08:23:03;;;;;;;9.25;2.40;;;;;;;;;;5056170;28;20103;-66
2024/03/24 08:25:48;;;;;;;4.80;2.10;;;;;;;;;;5054108;28;20032;-66
2024/03/24 08:28:34;;;;;;;4.97;2.10;;;;;;;;;;5055067;28;20072;-67
2024/03/24 08:31:20;;;;;;;11.70;1.95;;;;;;;;;;5055104;28;20017;-66
2024/03/24 08:34:06;;;;;;;14.65;1.80;;;;;;;;;;5054492;28;20447;-66
2024/03/24 08:36:51;;;;;;;7.88;1.98;;;;;;;;;;5054507;28;20025;-67
2024/03/24 08:39:37;;;;;;;15.32;2.28;;;;;;;;;;5054878;28;20036;-68
2024/03/24 08:42:23;;;;;;;9.95;1.67;;;;;;;;;;5054792;28;20028;-68
2024/03/24 08:45:09;;;;;;;5.18;1.80;;;;;;;;;;5053271;28;20039;-68
2024/03/24 08:47:55;;;;;;;7.60;2.15;;;;;;;;;;5054706;28;20025;-69
2024/03/24 08:50:42;;;;;;;8.60;1.55;;;;;;;;;;5040008;28;20490;-68
2024/03/24 08:53:27;;;;;;;2.53;1.73;;;;;;;;;;5053816;28;20103;-68
2024/03/24 08:56:13;;;;;;;15.43;2.67;;;;;;;;;;5054395;28;20021;-68
2024/03/24 08:58:59;;;;;;;8.25;2.85;;;;;;;;;;5054442;28;20025;-68
2024/03/24 09:01:44;;;;;;;8.23;2.50;;;;;;;;;;5054307;28;20025;-68
2024/03/24 09:04:30;;;;;;;8.77;1.90;;;;;;;;;;5054393;28;20490;-68
2024/03/24 09:07:16;;;;;;;6.60;1.70;;;;;;;;;;5053687;28;20032;-68
2024/03/24 09:10:01;;;;;;;6.70;1.90;;;;;;;;;;5054175;28;20090;-69
2024/03/24 09:12:48;;;;;;;10.63;2.45;;;;;;;;;;5054164;28;20029;-68
2024/03/24 09:15:33;;;;;;;11.32;2.25;;;;;;;;;;5054057;28;20021;-67
2024/03/24 09:18:19;;;;;;;6.55;2.38;;;;;;;;;;5054130;28;20386;-67
2024/03/24 09:21:10;;;;;;;3.85;1.73;;;;;;;;;;5053843;28;20021;-67
2024/03/24 09:23:56;;;;;;;7.68;1.58;;;;;;;;;;5039451;28;20107;-67
2024/03/24 09:26:42;;;;;;;5.43;1.60;;;;;;;;;;5053054;28;20033;-67
2024/03/24 09:29:28;;;;;;;3.30;1.42;;;;;;;;;;5053783;28;20025;-68
2024/03/24 09:32:15;;;;;;;6.05;2.17;;;;;;;;;;5036641;28;20021;-67
2024/03/24 09:35:00;;;;;;;6.50;2.03;;;;;;;;;;5036181;28;20028;-67
2024/03/24 09:37:46;;;;;;;14.60;1.95;;;;;;;;;;5063794;28;20063;-67
2024/03/24 09:40:32;;;;;;;11.73;2.00;;;;;;;;;;5064489;28;20013;-67
2024/03/24 09:43:17;;;;;;;6.68;2.08;;;;;;;;;;5058910;28;20021;-67
2024/03/24 09:46:03;;;;;;;3.67;1.27;;;;;;;;;;5072513;28;20033;-67
2024/03/24 09:48:52;;;;;;;2.47;1.25;;;;;;;;;;5046721;28;20521;-67
2024/03/24 09:51:39;;;;;;;5.75;1.58;;;;;;;;;;5038844;28;20051;-67
2024/03/24 09:54:25;;;;;;;4.45;1.42;;;;;;;;;;5034230;28;20056;-67
2024/03/24 09:57:12;;;;;;;6.32;2.78;;;;;;;;;;5052390;28;20035;-67
2024/03/24 09:59:58;;;;;;;4.30;1.48;;;;;;;;;;5051536;28;20063;-67
2024/03/24 10:02:44;;;;;;;8.52;1.42;;;;;;;;;;5034770;28;20065;-66
2024/03/24 10:05:31;;;;;;;6.88;1.95;;;;;;;;;;5033169;28;20025;-66
2024/03/24 10:08:16;;;;;;;7.13;2.42;;;;;;;;;;5038005;28;20378;-66
2024/03/24 10:11:25;;;;;;;5.53;1.58;;;;;;;;;;5051196;28;20029;-67
2024/03/24 10:14:11;;;;;;;2.92;1.20;;;;;;;;;;5052487;28;20040;-67
2024/03/24 10:17:14;;;;;;;8.75;2.03;;;;;;;;;;5052696;28;20024;-67
2024/03/24 10:20:00;;;;;;;5.45;1.95;;;;;;;;;;5070074;28;20490;-67
2024/03/24 10:22:55;;;;;;;6.53;2.03;;;;;;;;;;5072382;28;20031;-67
2024/03/24 10:25:41;;;;;;;8.63;1.55;;;;;;;;;;5035310;28;20090;-66
2024/03/24 10:28:28;;;;;;;2.92;1.73;;;;;;;;;;5052779;28;20512;-67
2024/03/24 10:31:13;;;;;;;3.20;1.48;;;;;;;;;;5037595;28;20029;-67
2024/03/24 10:34:02;;;;;;;10.85;1.90;;;;;;;;;;5033071;28;20506;-66
2024/03/24 10:36:48;;;;;;;6.30;1.65;;;;;;;;;;5037873;28;20408;-67
2024/03/24 10:39:35;;;;;;;6.13;2.38;;;;;;;;;;5031907;28;20029;-67
2024/03/24 10:42:21;;;;;;;6.15;2.90;;;;;;;;;;5039396;28;20114;-67
2024/03/24 10:45:07;;;;;;;3.90;2.00;;;;;;;;;;5052935;28;20090;-67
2024/03/24 10:48:07;;;;;;;7.40;2.28;;;;;;;;;;5037030;28;20025;-67
2024/03/24 10:50:53;;;;;;;6.30;1.63;;;;;;;;;;5018771;28;20133;-67
2024/03/24 10:53:40;;;;;;;2.58;1.42;;;;;;;;;;5017435;28;20029;-67
2024/03/24 10:56:26;;;;;;;8.93;2.28;;;;;;;;;;5038128;28;20502;-67
2024/03/24 10:59:12;;;;;;;5.65;2.03;;;;;;;;;;5052238;28;20025;-68
2024/03/24 11:02:00;;;;;;;5.18;1.98;;;;;;;;;;5047510;28;20056;-67
2024/03/24 11:04:47;;;;;;;3.38;1.80;;;;;;;;;;5055973;28;20109;-67
2024/03/24 11:07:34;;;;;;;7.43;2.40;;;;;;;;;;5066062;28;20502;-67
2024/03/24 11:10:21;;;;;;;10.63;2.45;;;;;;;;;;5035818;28;20032;-67
2024/03/24 11:13:07;;;;;;;6.18;1.85;;;;;;;;;;5051003;28;20025;-67
2024/03/24 11:15:53;;;;;;;12.02;2.50;;;;;;;;;;5037531;28;20024;-67
2024/03/24 11:18:39;;;;;;;4.95;2.00;;;;;;;;;;5036516;28;20024;-67
2024/03/24 11:21:29;;;;;;;10.82;2.85;;;;;;;;;;5031596;28;20029;-67
2024/03/24 11:24:26;;;;;;;;;;;;;;;;;;5031538;28;20052;-67
2024/03/24 11:27:26;;;;;;;3.00;1.75;;;;;;;;;;5048644;28;19912;-67
2024/03/24 11:30:15;;;;;;;9.77;1.92;;;;;;;;;;5049489;28;20147;-67
2024/03/24 11:33:01;;;;;;;6.82;2.03;;;;;;;;;;5051884;28;20058;-67
2024/03/24 11:35:48;;;;;;;4.53;1.80;;;;;;;;;;5036419;28;20068;-67
2024/03/24 11:38:35;;;;;;;5.45;2.38;;;;;;;;;;5050501;28;20395;-67
2024/03/24 11:41:22;;;;;;;6.15;1.80;;;;;;;;;;5036105;28;20028;-67
2024/03/24 11:44:08;;;;;;;7.80;2.83;;;;;;;;;;5070257;28;20086;-67
2024/03/24 11:47:00;;;;;;;5.57;2.38;;;;;;;;;;5122184;23;20182;-66
2024/03/24 11:49:49;;;;;;;4.82;1.92;;;;;;;;;;5077681;28;20020;-66
2024/03/24 11:52:34;;;;;;;9.25;2.95;;;;;;;;;;5086647;28;20078;-66
2024/03/24 11:55:21;;;;;;;6.03;2.22;;;;;;;;;;5090255;28;20045;-66
2024/03/24 11:58:07;;;;;;;6.70;2.50;;;;;;;;;;5077725;28;20032;-67
2024/03/24 12:00:52;;;;;;;8.32;2.10;;;;;;;;;;5092251;28;20465;-67
2024/03/24 12:03:38;;;;;;;7.20;1.90;;;;;;;;;;5072791;28;20024;-68
2024/03/24 12:06:24;;;;;;;6.95;1.95;;;;;;;;;;5071652;28;20036;-68
2024/03/24 12:09:11;;;;;;;7.70;1.90;;;;;;;;;;5079050;28;20036;-68
2024/03/24 12:11:57;;;;;;;6.90;2.35;;;;;;;;;;5057220;28;20426;-69
2024/03/24 12:14:43;;;;;;;5.03;2.10;;;;;;;;;;5061099;28;20024;-68
2024/03/24 12:17:29;;;;;;;8.93;2.28;;;;;;;;;;5072354;28;20024;-68
2024/03/24 12:20:14;;;;;;;9.25;2.40;;;;;;;;;;5071812;28;20103;-68
2024/03/24 12:23:01;;;;;;;11.10;2.28;;;;;;;;;;5076258;28;20085;-68
2024/03/24 12:25:49;;;;;;;7.60;3.42;;;;;;;;;;5076072;28;20024;-68
2024/03/24 12:28:35;;;;;;;10.13;2.70;;;;;;;;;;5073808;28;20131;-68
2024/03/24 12:31:21;;;;;;;13.13;3.17;;;;;;;;;;5071037;28;20540;-69
2024/03/24 12:34:07;;;;;;;9.60;3.15;;;;;;;;;;5074693;28;20025;-67
2024/03/24 12:36:53;;;;;;;7.22;2.40;;;;;;;;;;5077683;28;20028;-68
2024/03/24 12:39:39;;;;;;;13.55;2.85;;;;;;;;;;5069683;28;20434;-67
2024/03/24 12:42:24;;;;;;;8.55;3.15;;;;;;;;;;5080331;28;20024;-67
2024/03/24 12:45:15;;;;;;;9.20;2.47;;;;;;;;;;5081639;28;20032;-67
2024/03/24 12:48:09;;;;;;;8.60;2.40;;;;;;;;;;5065186;28;20105;-68
2024/03/24 12:50:58;;;;;;;8.10;2.38;;;;;;;;;;5063367;28;20024;-69
2024/03/24 12:53:54;;;;;;;13.15;3.00;;;;;;;;;;5077136;28;20070;-68
2024/03/24 12:56:44;;;;;;;11.10;3.15;;;;;;;;;;5066635;28;20509;-67
2024/03/24 12:59:29;;;;;;;12.15;2.28;;;;;;;;;;5064953;28;20532;-68
2024/03/24 13:02:15;;;;;;;9.88;2.20;;;;;;;;;;5081242;28;20036;-67
2024/03/24 13:05:01;;;;;;;6.80;2.55;;;;;;;;;;5083322;28;20032;-68
2024/03/24 13:07:48;;;;;;;11.25;2.42;;;;;;;;;;5076222;28;20051;-68
2024/03/24 13:10:33;;;;;;;12.00;2.63;;;;;;;;;;5068626;28;20020;-68
2024/03/24 13:13:19;;;;;;;4.60;1.98;;;;;;;;;;5072344;28;20024;-68
2024/03/24 13:16:06;;;;;;;12.15;2.33;;;;;;;;;;5079749;28;20407;-68
2024/03/24 13:19:07;;;;;;;5.13;1.77;;;;;;;;;;5075098;28;20032;-68
2024/03/24 13:21:56;;;;;;;6.00;2.47;;;;;;;;;;5078207;28;20497;-68
2024/03/24 13:24:53;;;;;;;7.88;1.70;;;;;;;;;;5069223;28;20033;-68
2024/03/24 13:27:38;;;;;;;6.72;2.78;;;;;;;;;;5068881;28;20036;-67
2024/03/24 13:30:24;;;;;;;10.95;2.30;;;;;;;;;;5080012;28;20017;-66
2024/03/24 13:33:10;;;;;;;4.55;1.65;;;;;;;;;;5086337;28;20032;-69
2024/03/24 13:35:55;;;;;;;6.40;2.03;;;;;;;;;;5074148;28;20031;-67
2024/03/24 13:38:55;;;;;;;3.30;1.55;;;;;;;;;;5076947;28;20020;-68
2024/03/24 13:42:00;;;;;;;8.10;1.88;;;;;;;;;;5079952;28;20067;-69
2024/03/24 13:44:58;;;;;;;11.75;2.08;;;;;;;;;;5084631;28;20024;-66
2024/03/24 13:47:45;;;;;;;11.93;2.83;;;;;;;;;;5081801;28;20024;-66
2024/03/24 13:50:31;;;;;;;6.75;1.80;;;;;;;;;;5055506;28;20024;-66
2024/03/24 13:53:20;;;;;;;7.28;2.70;;;;;;;;;;5082629;28;20086;-66
2024/03/24 13:56:06;;;;;;;10.55;1.92;;;;;;;;;;5070036;28;20029;-67
2024/03/24 13:58:52;;;;;;;5.53;2.70;;;;;;;;;;5076384;28;20492;-66
2024/03/24 14:01:38;;;;;;;6.90;2.05;;;;;;;;;;5078708;28;20063;-66
2024/03/24 14:04:23;;;;;;;4.68;1.77;;;;;;;;;;5081977;28;20033;-67
2024/03/24 14:07:09;;;;;;;7.40;2.10;;;;;;;;;;5077288;28;20086;-67
2024/03/24 14:09:56;;;;;;;8.00;2.40;;;;;;;;;;5081255;28;20047;-66
2024/03/24 14:12:48;;;;;;;9.30;2.50;;;;;;;;;;5080785;28;20028;-66
2024/03/24 14:15:55;;;;;;;12.18;2.80;;;;;;;;;;5080053;28;20024;-67
2024/03/24 14:19:02;;;;;;;4.43;2.22;;;;;;;;;;5083394;28;20033;-67
2024/03/24 14:22:19;;;;;;;4.65;2.00;;;;;;;;;;5070515;28;20021;-67
2024/03/24 14:25:18;;;;;;;5.35;2.60;;;;;;;;;;5070184;28;20059;-67
2024/03/24 14:28:04;;;;;;;4.93;2.05;;;;;;;;;;5065715;28;20020;-67
2024/03/24 14:30:52;;;;;;;7.53;2.13;;;;;;;;;;5079365;28;20032;-66
2024/03/24 14:33:38;;;;;;;6.40;2.72;;;;;;;;;;5075993;28;20405;-67
2024/03/24 14:36:48;;;;;;;3.70;2.00;;;;;;;;;;5080967;28;20060;-67
2024/03/24 14:39:59;;;;;;;8.05;2.35;;;;;;;;;;5065542;28;20500;-67
2024/03/24 14:42:55;;;;;;;12.95;3.83;;;;;;;;;;5077735;28;20389;-68
2024/03/24 14:45:54;;;;;;;5.45;2.42;;;;;;;;;;5078054;28;20072;-68
2024/03/24 14:48:40;;;;;;;3.60;1.80;;;;;;;;;;5077820;28;20051;-68
2024/03/24 14:51:25;;;;;;;4.13;2.15;;;;;;;;;;5092702;28;20020;-67
2024/03/24 14:54:11;;;;;;;8.60;2.58;;;;;;;;;;5089373;28;20023;-68
2024/03/24 14:56:58;;;;;;;4.60;2.10;;;;;;;;;;5072388;28;20028;-67
2024/03/24 14:59:44;;;;;;;3.53;1.70;;;;;;;;;;5075627;28;20111;-67
2024/03/24 15:02:29;;;;;;;4.50;2.00;;;;;;;;;;5081961;28;20031;-68
2024/03/24 15:05:16;;;;;;;6.45;2.03;;;;;;;;;;5077244;28;20028;-68
2024/03/24 15:08:02;;;;;;;8.38;2.17;;;;;;;;;;5077084;28;20032;-67
2024/03/24 15:10:48;;;;;;;3.72;1.75;;;;;;;;;;5078028;28;20043;-68
2024/03/24 15:13:33;;;;;;;5.05;1.58;;;;;;;;;;5092150;28;20027;-68
2024/03/24 15:16:19;;;;;;;4.68;2.35;;;;;;;;;;5092157;28;20533;-67
2024/03/24 15:19:05;;;;;;;2.88;1.48;;;;;;;;;;5092688;28;20028;-68
2024/03/24 15:21:51;;;;;;;8.25;2.05;;;;;;;;;;5076630;28;20024;-67
2024/03/24 15:24:36;;;;;;;6.60;2.13;;;;;;;;;;5092245;28;20050;-67
2024/03/24 15:27:22;;;;;;;6.13;2.40;;;;;;;;;;5092138;28;20016;-68
2024/03/24 15:30:08;;;;;;;7.57;2.92;;;;;;;;;;5093253;28;20028;-68
2024/03/24 15:32:54;;;;;;;5.93;2.90;;;;;;;;;;5076873;28;20024;-68
2024/03/24 15:35:40;;;;;;;9.15;2.50;;;;;;;;;;5076699;28;20024;-67
2024/03/24 15:38:26;;;;;;;10.02;4.45;;;;;;;;;;5091856;28;20392;-68
2024/03/24 15:41:11;;;;;;;11.27;2.78;;;;;;;;;;5091749;28;20020;-68
2024/03/24 15:43:57;;;;;;;8.88;2.58;;;;;;;;;;5091908;28;20074;-67
2024/03/24 15:46:43;;;;;;;8.45;2.78;;;;;;;;;;5091820;28;20024;-68
2024/03/24 15:49:29;;;;;;;7.20;2.95;;;;;;;;;;5078267;28;20416;-68
2024/03/24 15:52:15;;;;;;;10.45;3.53;;;;;;;;;;5054191;28;20028;-67
2024/03/24 15:55:00;;;;;;;8.88;3.65;;;;;;;;;;5077690;28;20023;-67
2024/03/24 15:57:57;;;;;;;11.23;3.10;;;;;;;;;;5092465;28;20020;-68
2024/03/24 16:00:51;;;;;;;11.63;3.45;;;;;;;;;;5057297;28;20020;-68
2024/03/24 16:03:36;;;;;;;10.02;3.67;;;;;;;;;;5075928;28;20024;-67
2024/03/24 16:06:22;;;;;;;9.95;3.13;;;;;;;;;;5091507;28;20051;-67
2024/03/24 16:09:14;;;;;;;10.25;3.38;;;;;;;;;;5091897;28;20531;-67
2024/03/24 16:12:07;;;;;;;10.65;3.83;;;;;;;;;;5077008;28;20028;-68
2024/03/24 16:14:52;;;;;;;11.00;3.45;;;;;;;;;;5091767;28;20027;-68
2024/03/24 16:17:38;;;;;;;8.82;3.97;;;;;;;;;;5091445;28;20016;-68
2024/03/24 16:20:23;;;;;;;6.65;2.88;;;;;;;;;;5091914;28;20020;-67
2024/03/24 16:23:10;;;;;;;12.57;3.25;;;;;;;;;;5093979;28;20485;-68
2024/03/24 16:25:56;;;;;;;10.55;3.58;;;;;;;;;;5080822;28;20111;-67
2024/03/24 16:28:42;;;;;;;18.83;3.95;;;;;;;;;;5067394;28;20037;-67
2024/03/24 16:31:28;;;;;;;13.00;4.82;;;;;;;;;;5095608;28;20024;-67
2024/03/24 16:34:13;;;;;;;12.60;3.45;;;;;;;;;;5080527;28;20024;-67
2024/03/24 16:36:59;;;;;;;7.70;3.25;;;;;;;;;;5079860;28;20022;-67